Terminal Aerodrome Forecast
Issued by NWS

Home | Current Version | Previous Version | Text Only | Print | Product List | Glossary On
Versions: 1 2 3 4 5 6 7 8 9 10 11 12 13 14 15 16 17
000
FTAK31 PAJN 200615 AAA
TAFAPG
TAF AMD
PAPG 200615Z 2006/2106 VRB02KT 6SM -SHRA FEW006 BKN025 OVC035
      TEMPO 2006/2010 4SM -SHRA BR BKN002
     FM201000 VRB03KT P6SM BCFG SCT005 BKN040
      TEMPO 2010/2014 3SM BR BKN005
     FM201800 07002KT P6SM BKN050
     FM210200 10004KT 4SM -RA OVC025
      AMD LTD TO CLD VIS AND WIND 2006/2015=

USA.gov is the U.S. government's official web portal to all federal, state and local government web resources and services.